sensor_id;sensor_type;location;lat;lon;timestamp;P1;durP1;ratioP1;P2;durP2;ratioP2
29466;SDS011;60968;37.490;-122.288;2023-04-16T00:00:21;10.03;;;1.20;;
29466;SDS011;60968;37.490;-122.288;2023-04-16T00:03:22;10.43;;;1.57;;
29466;SDS011;60968;37.490;-122.288;2023-04-16T00:06:26;7.63;;;1.50;;
29466;SDS011;60968;37.490;-122.288;2023-04-16T00:09:27;11.30;;;1.73;;
29466;SDS011;60968;37.490;-122.288;2023-04-16T00:12:28;8.27;;;1.60;;
29466;SDS011;60968;37.490;-122.288;2023-04-16T00:15:30;9.80;;;1.63;;
29466;SDS011;60968;37.490;-122.288;2023-04-16T00:18:31;9.00;;;1.20;;
29466;SDS011;60968;37.490;-122.288;2023-04-16T00:21:31;3.90;;;1.10;;
29466;SDS011;60968;37.490;-122.288;2023-04-16T00:24:33;8.93;;;1.30;;
29466;SDS011;60968;37.490;-122.288;2023-04-16T00:27:35;6.30;;;1.13;;
29466;SDS011;60968;37.490;-122.288;2023-04-16T00:30:37;8.57;;;1.20;;
29466;SDS011;60968;37.490;-122.288;2023-04-16T00:33:38;7.87;;;1.10;;
29466;SDS011;60968;37.490;-122.288;2023-04-16T00:36:39;7.63;;;1.30;;
29466;SDS011;60968;37.490;-122.288;2023-04-16T00:39:41;7.93;;;1.27;;
29466;SDS011;60968;37.490;-122.288;2023-04-16T00:42:41;7.87;;;1.20;;
29466;SDS011;60968;37.490;-122.288;2023-04-16T00:45:42;7.57;;;1.03;;
29466;SDS011;60968;37.490;-122.288;2023-04-16T00:48:43;13.63;;;1.77;;
29466;SDS011;60968;37.490;-122.288;2023-04-16T00:51:45;3.60;;;1.03;;
29466;SDS011;60968;37.490;-122.288;2023-04-16T00:54:47;4.30;;;1.27;;
29466;SDS011;60968;37.490;-122.288;2023-04-16T00:57:50;12.53;;;1.40;;
29466;SDS011;60968;37.490;-122.288;2023-04-16T01:00:51;3.57;;;1.07;;
29466;SDS011;60968;37.490;-122.288;2023-04-16T01:03:52;5.17;;;1.30;;
29466;SDS011;60968;37.490;-122.288;2023-04-16T01:06:54;1.60;;;0.60;;
29466;SDS011;60968;37.490;-122.288;2023-04-16T01:09:55;8.03;;;1.00;;
29466;SDS011;60968;37.490;-122.288;2023-04-16T01:12:56;8.33;;;1.27;;
29466;SDS011;60968;37.490;-122.288;2023-04-16T01:15:58;7.37;;;1.10;;
29466;SDS011;60968;37.490;-122.288;2023-04-16T01:19:01;9.03;;;1.40;;
29466;SDS011;60968;37.490;-122.288;2023-04-16T01:22:03;7.33;;;1.10;;
29466;SDS011;60968;37.490;-122.288;2023-04-16T01:25:05;5.37;;;0.93;;
29466;SDS011;60968;37.490;-122.288;2023-04-16T01:28:06;6.00;;;1.17;;
29466;SDS011;60968;37.490;-122.288;2023-04-16T01:31:07;6.23;;;1.80;;
29466;SDS011;60968;37.490;-122.288;2023-04-16T01:34:08;7.70;;;1.27;;
29466;SDS011;60968;37.490;-122.288;2023-04-16T01:37:09;5.70;;;0.90;;
29466;SDS011;60968;37.490;-122.288;2023-04-16T01:40:11;3.63;;;0.93;;
29466;SDS011;60968;37.490;-122.288;2023-04-16T01:43:12;6.97;;;1.20;;
29466;SDS011;60968;37.490;-122.288;2023-04-16T01:46:16;7.10;;;1.47;;
29466;SDS011;60968;37.490;-122.288;2023-04-16T01:49:20;8.60;;;1.43;;
29466;SDS011;60968;37.490;-122.288;2023-04-16T01:52:22;6.43;;;1.20;;
29466;SDS011;60968;37.490;-122.288;2023-04-16T01:55:23;4.20;;;1.37;;
29466;SDS011;60968;37.490;-122.288;2023-04-16T01:58:24;5.73;;;1.50;;
29466;SDS011;60968;37.490;-122.288;2023-04-16T02:01:28;4.37;;;1.70;;
29466;SDS011;60968;37.490;-122.288;2023-04-16T02:04:28;7.00;;;2.17;;
29466;SDS011;60968;37.490;-122.288;2023-04-16T02:07:29;5.33;;;1.20;;
29466;SDS011;60968;37.490;-122.288;2023-04-16T02:10:31;7.47;;;1.27;;
29466;SDS011;60968;37.490;-122.288;2023-04-16T02:13:32;8.13;;;1.57;;
29466;SDS011;60968;37.490;-122.288;2023-04-16T02:16:34;5.53;;;1.30;;
29466;SDS011;60968;37.490;-122.288;2023-04-16T02:19:35;7.60;;;1.53;;
29466;SDS011;60968;37.490;-122.288;2023-04-16T02:22:39;10.23;;;1.93;;
29466;SDS011;60968;37.490;-122.288;2023-04-16T02:25:41;11.87;;;1.90;;
29466;SDS011;60968;37.490;-122.288;2023-04-16T02:28:45;7.47;;;1.60;;
29466;SDS011;60968;37.490;-122.288;2023-04-16T02:31:45;8.13;;;1.40;;
29466;SDS011;60968;37.490;-122.288;2023-04-16T02:34:46;7.80;;;1.63;;
29466;SDS011;60968;37.490;-122.288;2023-04-16T02:37:48;7.53;;;1.43;;
29466;SDS011;60968;37.490;-122.288;2023-04-16T02:40:49;7.30;;;1.43;;
29466;SDS011;60968;37.490;-122.288;2023-04-16T02:43:51;6.07;;;1.20;;
29466;SDS011;60968;37.490;-122.288;2023-04-16T02:46:52;10.93;;;1.43;;
29466;SDS011;60968;37.490;-122.288;2023-04-16T02:49:54;15.27;;;2.50;;
29466;SDS011;60968;37.490;-122.288;2023-04-16T02:52:54;7.83;;;1.70;;
29466;SDS011;60968;37.490;-122.288;2023-04-16T02:55:56;8.10;;;2.00;;
29466;SDS011;60968;37.490;-122.288;2023-04-16T02:58:58;4.30;;;1.43;;
29466;SDS011;60968;37.490;-122.288;2023-04-16T03:02:01;3.90;;;1.80;;
29466;SDS011;60968;37.490;-122.288;2023-04-16T03:05:03;11.20;;;2.00;;
29466;SDS011;60968;37.490;-122.288;2023-04-16T03:08:04;9.80;;;1.90;;
29466;SDS011;60968;37.490;-122.288;2023-04-16T03:11:05;6.83;;;1.60;;
29466;SDS011;60968;37.490;-122.288;2023-04-16T03:14:07;8.77;;;1.77;;
29466;SDS011;60968;37.490;-122.288;2023-04-16T03:17:08;11.87;;;1.90;;
29466;SDS011;60968;37.490;-122.288;2023-04-16T03:20:09;11.70;;;2.40;;
29466;SDS011;60968;37.490;-122.288;2023-04-16T03:23:12;6.97;;;1.60;;
29466;SDS011;60968;37.490;-122.288;2023-04-16T03:26:13;21.27;;;2.53;;
29466;SDS011;60968;37.490;-122.288;2023-04-16T03:29:13;19.03;;;2.50;;
29466;SDS011;60968;37.490;-122.288;2023-04-16T03:32:14;9.93;;;2.57;;
29466;SDS011;60968;37.490;-122.288;2023-04-16T03:35:15;6.77;;;1.73;;
29466;SDS011;60968;37.490;-122.288;2023-04-16T03:38:16;8.93;;;1.80;;
29466;SDS011;60968;37.490;-122.288;2023-04-16T03:41:21;31.23;;;3.67;;
29466;SDS011;60968;37.490;-122.288;2023-04-16T03:44:22;9.87;;;1.90;;
29466;SDS011;60968;37.490;-122.288;2023-04-16T03:47:23;17.93;;;2.43;;
29466;SDS011;60968;37.490;-122.288;2023-04-16T03:50:26;9.73;;;1.80;;
29466;SDS011;60968;37.490;-122.288;2023-04-16T03:53:27;6.93;;;2.50;;
29466;SDS011;60968;37.490;-122.288;2023-04-16T03:56:28;13.10;;;2.33;;
29466;SDS011;60968;37.490;-122.288;2023-04-16T03:59:29;11.40;;;1.83;;
29466;SDS011;60968;37.490;-122.288;2023-04-16T04:02:30;15.03;;;2.80;;
29466;SDS011;60968;37.490;-122.288;2023-04-16T04:05:34;11.70;;;2.93;;
29466;SDS011;60968;37.490;-122.288;2023-04-16T04:08:44;8.53;;;2.07;;
29466;SDS011;60968;37.490;-122.288;2023-04-16T04:11:46;15.63;;;2.10;;
29466;SDS011;60968;37.490;-122.288;2023-04-16T04:14:46;10.37;;;2.83;;
29466;SDS011;60968;37.490;-122.288;2023-04-16T04:17:48;10.90;;;2.37;;
29466;SDS011;60968;37.490;-122.288;2023-04-16T04:20:49;14.57;;;2.43;;
29466;SDS011;60968;37.490;-122.288;2023-04-16T04:23:51;10.00;;;2.00;;
29466;SDS011;60968;37.490;-122.288;2023-04-16T04:26:52;10.20;;;2.13;;
29466;SDS011;60968;37.490;-122.288;2023-04-16T04:29:52;14.47;;;2.47;;
29466;SDS011;60968;37.490;-122.288;2023-04-16T04:32:53;8.87;;;1.63;;
29466;SDS011;60968;37.490;-122.288;2023-04-16T04:35:55;10.23;;;2.13;;
29466;SDS011;60968;37.490;-122.288;2023-04-16T04:38:56;10.67;;;2.50;;
29466;SDS011;60968;37.490;-122.288;2023-04-16T04:41:58;12.27;;;2.53;;
29466;SDS011;60968;37.490;-122.288;2023-04-16T04:44:59;8.03;;;2.10;;
29466;SDS011;60968;37.490;-122.288;2023-04-16T04:48:00;13.77;;;3.70;;
29466;SDS011;60968;37.490;-122.288;2023-04-16T04:51:01;14.83;;;2.40;;
29466;SDS011;60968;37.490;-122.288;2023-04-16T04:54:02;10.07;;;1.90;;
29466;SDS011;60968;37.490;-122.288;2023-04-16T04:57:03;10.17;;;2.13;;
29466;SDS011;60968;37.490;-122.288;2023-04-16T05:00:04;10.80;;;2.13;;
29466;SDS011;60968;37.490;-122.288;2023-04-16T05:03:09;12.93;;;2.20;;
29466;SDS011;60968;37.490;-122.288;2023-04-16T05:06:12;15.17;;;2.57;;
29466;SDS011;60968;37.490;-122.288;2023-04-16T05:09:13;7.70;;;2.30;;
29466;SDS011;60968;37.490;-122.288;2023-04-16T05:12:14;13.73;;;2.40;;
29466;SDS011;60968;37.490;-122.288;2023-04-16T05:15:15;8.53;;;2.40;;
29466;SDS011;60968;37.490;-122.288;2023-04-16T05:18:16;11.13;;;2.10;;
29466;SDS011;60968;37.490;-122.288;2023-04-16T05:21:17;10.97;;;2.07;;
29466;SDS011;60968;37.490;-122.288;2023-04-16T05:24:18;10.83;;;2.57;;
29466;SDS011;60968;37.490;-122.288;2023-04-16T05:27:19;17.73;;;3.13;;
29466;SDS011;60968;37.490;-122.288;2023-04-16T05:30:21;14.87;;;2.30;;
29466;SDS011;60968;37.490;-122.288;2023-04-16T05:33:22;11.90;;;2.63;;
29466;SDS011;60968;37.490;-122.288;2023-04-16T05:36:23;10.57;;;3.10;;
29466;SDS011;60968;37.490;-122.288;2023-04-16T05:39:24;13.83;;;2.43;;
29466;SDS011;60968;37.490;-122.288;2023-04-16T05:42:26;12.03;;;2.03;;
29466;SDS011;60968;37.490;-122.288;2023-04-16T05:45:28;11.50;;;2.17;;
29466;SDS011;60968;37.490;-122.288;2023-04-16T05:48:31;14.23;;;2.80;;
29466;SDS011;60968;37.490;-122.288;2023-04-16T05:51:32;17.43;;;2.47;;
29466;SDS011;60968;37.490;-122.288;2023-04-16T05:54:33;12.97;;;2.53;;
29466;SDS011;60968;37.490;-122.288;2023-04-16T05:57:36;12.67;;;2.10;;
29466;SDS011;60968;37.490;-122.288;2023-04-16T06:00:37;13.77;;;2.63;;
29466;SDS011;60968;37.490;-122.288;2023-04-16T06:03:39;9.13;;;2.13;;
29466;SDS011;60968;37.490;-122.288;2023-04-16T06:06:40;16.43;;;3.17;;
29466;SDS011;60968;37.490;-122.288;2023-04-16T06:09:41;17.53;;;2.67;;
29466;SDS011;60968;37.490;-122.288;2023-04-16T06:12:42;15.63;;;2.70;;
29466;SDS011;60968;37.490;-122.288;2023-04-16T06:15:43;11.77;;;2.30;;
29466;SDS011;60968;37.490;-122.288;2023-04-16T06:18:44;11.17;;;2.27;;
29466;SDS011;60968;37.490;-122.288;2023-04-16T06:21:45;16.23;;;3.30;;
29466;SDS011;60968;37.490;-122.288;2023-04-16T06:24:46;12.50;;;2.10;;
29466;SDS011;60968;37.490;-122.288;2023-04-16T06:27:50;11.27;;;2.43;;
29466;SDS011;60968;37.490;-122.288;2023-04-16T06:30:51;12.03;;;2.10;;
29466;SDS011;60968;37.490;-122.288;2023-04-16T06:33:52;15.43;;;2.67;;
29466;SDS011;60968;37.490;-122.288;2023-04-16T06:36:53;14.13;;;2.60;;
29466;SDS011;60968;37.490;-122.288;2023-04-16T06:39:53;15.17;;;2.87;;
29466;SDS011;60968;37.490;-122.288;2023-04-16T06:42:54;11.83;;;2.40;;
29466;SDS011;60968;37.490;-122.288;2023-04-16T06:45:55;13.30;;;3.07;;
29466;SDS011;60968;37.490;-122.288;2023-04-16T06:48:56;13.40;;;2.47;;
29466;SDS011;60968;37.490;-122.288;2023-04-16T06:51:58;10.27;;;2.00;;
29466;SDS011;60968;37.490;-122.288;2023-04-16T06:55:02;15.47;;;2.57;;
29466;SDS011;60968;37.490;-122.288;2023-04-16T06:58:03;19.00;;;2.60;;
29466;SDS011;60968;37.490;-122.288;2023-04-16T07:01:04;8.97;;;2.23;;
29466;SDS011;60968;37.490;-122.288;2023-04-16T07:04:05;20.73;;;3.03;;
29466;SDS011;60968;37.490;-122.288;2023-04-16T07:07:08;13.77;;;2.63;;
29466;SDS011;60968;37.490;-122.288;2023-04-16T07:10:10;15.93;;;2.90;;
29466;SDS011;60968;37.490;-122.288;2023-04-16T07:13:14;15.30;;;2.77;;
29466;SDS011;60968;37.490;-122.288;2023-04-16T07:16:16;12.77;;;2.40;;
29466;SDS011;60968;37.490;-122.288;2023-04-16T07:19:17;11.37;;;2.20;;
29466;SDS011;60968;37.490;-122.288;2023-04-16T07:22:24;14.83;;;2.37;;
29466;SDS011;60968;37.490;-122.288;2023-04-16T07:25:25;12.47;;;2.63;;
29466;SDS011;60968;37.490;-122.288;2023-04-16T07:28:26;7.23;;;1.93;;
29466;SDS011;60968;37.490;-122.288;2023-04-16T07:31:28;24.60;;;3.27;;
29466;SDS011;60968;37.490;-122.288;2023-04-16T07:34:30;13.87;;;2.70;;
29466;SDS011;60968;37.490;-122.288;2023-04-16T07:37:31;18.27;;;2.27;;
29466;SDS011;60968;37.490;-122.288;2023-04-16T07:40:32;17.33;;;2.63;;
29466;SDS011;60968;37.490;-122.288;2023-04-16T07:43:32;13.60;;;2.87;;
29466;SDS011;60968;37.490;-122.288;2023-04-16T07:46:34;21.00;;;2.73;;
29466;SDS011;60968;37.490;-122.288;2023-04-16T07:49:35;14.17;;;2.30;;
29466;SDS011;60968;37.490;-122.288;2023-04-16T07:52:36;24.43;;;3.50;;
29466;SDS011;60968;37.490;-122.288;2023-04-16T07:55:41;12.97;;;2.37;;
29466;SDS011;60968;37.490;-122.288;2023-04-16T07:58:41;17.60;;;3.17;;
29466;SDS011;60968;37.490;-122.288;2023-04-16T08:01:42;13.17;;;2.13;;
29466;SDS011;60968;37.490;-122.288;2023-04-16T08:04:43;10.77;;;2.60;;
29466;SDS011;60968;37.490;-122.288;2023-04-16T08:07:44;14.70;;;2.80;;
29466;SDS011;60968;37.490;-122.288;2023-04-16T08:10:45;13.83;;;2.50;;
29466;SDS011;60968;37.490;-122.288;2023-04-16T08:13:46;15.63;;;2.30;;
29466;SDS011;60968;37.490;-122.288;2023-04-16T08:16:48;17.43;;;3.10;;
29466;SDS011;60968;37.490;-122.288;2023-04-16T08:19:49;14.77;;;2.43;;
29466;SDS011;60968;37.490;-122.288;2023-04-16T08:22:50;14.93;;;3.00;;
29466;SDS011;60968;37.490;-122.288;2023-04-16T08:25:53;10.67;;;2.90;;
29466;SDS011;60968;37.490;-122.288;2023-04-16T08:28:54;22.17;;;2.60;;
29466;SDS011;60968;37.490;-122.288;2023-04-16T08:31:56;13.63;;;2.47;;
29466;SDS011;60968;37.490;-122.288;2023-04-16T08:34:58;11.93;;;2.23;;
29466;SDS011;60968;37.490;-122.288;2023-04-16T08:37:59;10.60;;;1.90;;
29466;SDS011;60968;37.490;-122.288;2023-04-16T08:41:02;11.60;;;2.47;;
29466;SDS011;60968;37.490;-122.288;2023-04-16T08:44:10;16.63;;;3.27;;
29466;SDS011;60968;37.490;-122.288;2023-04-16T08:47:21;11.00;;;2.67;;
29466;SDS011;60968;37.490;-122.288;2023-04-16T08:50:24;15.47;;;2.60;;
29466;SDS011;60968;37.490;-122.288;2023-04-16T08:53:32;14.40;;;3.50;;
29466;SDS011;60968;37.490;-122.288;2023-04-16T08:56:36;17.57;;;2.77;;
29466;SDS011;60968;37.490;-122.288;2023-04-16T08:59:39;9.13;;;2.50;;
29466;SDS011;60968;37.490;-122.288;2023-04-16T09:02:45;13.53;;;3.03;;
29466;SDS011;60968;37.490;-122.288;2023-04-16T09:05:46;11.03;;;2.80;;
29466;SDS011;60968;37.490;-122.288;2023-04-16T09:08:49;12.80;;;2.33;;
29466;SDS011;60968;37.490;-122.288;2023-04-16T09:11:54;12.80;;;3.03;;
29466;SDS011;60968;37.490;-122.288;2023-04-16T09:14:55;17.27;;;3.00;;
29466;SDS011;60968;37.490;-122.288;2023-04-16T09:17:57;11.53;;;2.73;;
29466;SDS011;60968;37.490;-122.288;2023-04-16T09:20:57;16.53;;;2.83;;
29466;SDS011;60968;37.490;-122.288;2023-04-16T09:23:59;18.60;;;3.23;;
29466;SDS011;60968;37.490;-122.288;2023-04-16T09:27:01;23.37;;;2.80;;
29466;SDS011;60968;37.490;-122.288;2023-04-16T09:30:25;26.57;;;3.27;;
29466;SDS011;60968;37.490;-122.288;2023-04-16T09:33:25;14.97;;;2.67;;
29466;SDS011;60968;37.490;-122.288;2023-04-16T09:36:27;13.20;;;2.33;;
29466;SDS011;60968;37.490;-122.288;2023-04-16T09:39:29;18.57;;;3.00;;
29466;SDS011;60968;37.490;-122.288;2023-04-16T09:42:30;17.40;;;2.63;;
29466;SDS011;60968;37.490;-122.288;2023-04-16T09:45:32;13.30;;;2.30;;
29466;SDS011;60968;37.490;-122.288;2023-04-16T09:48:53;14.03;;;2.50;;
29466;SDS011;60968;37.490;-122.288;2023-04-16T09:51:54;19.57;;;3.43;;
29466;SDS011;60968;37.490;-122.288;2023-04-16T09:54:55;18.87;;;2.77;;
29466;SDS011;60968;37.490;-122.288;2023-04-16T09:58:00;16.10;;;2.83;;
29466;SDS011;60968;37.490;-122.288;2023-04-16T10:01:02;11.47;;;3.10;;
29466;SDS011;60968;37.490;-122.288;2023-04-16T10:04:10;21.73;;;2.83;;
29466;SDS011;60968;37.490;-122.288;2023-04-16T10:07:10;18.03;;;2.97;;
29466;SDS011;60968;37.490;-122.288;2023-04-16T10:10:11;25.37;;;3.77;;
29466;SDS011;60968;37.490;-122.288;2023-04-16T10:13:12;17.50;;;2.23;;
29466;SDS011;60968;37.490;-122.288;2023-04-16T10:16:16;15.67;;;2.80;;
29466;SDS011;60968;37.490;-122.288;2023-04-16T10:19:17;15.50;;;3.57;;
29466;SDS011;60968;37.490;-122.288;2023-04-16T10:22:18;17.50;;;2.33;;
29466;SDS011;60968;37.490;-122.288;2023-04-16T10:25:19;17.77;;;3.10;;
29466;SDS011;60968;37.490;-122.288;2023-04-16T10:28:22;18.67;;;2.57;;
29466;SDS011;60968;37.490;-122.288;2023-04-16T10:31:24;17.07;;;2.77;;
29466;SDS011;60968;37.490;-122.288;2023-04-16T10:34:27;16.93;;;3.03;;
29466;SDS011;60968;37.490;-122.288;2023-04-16T10:37:30;12.63;;;2.50;;
29466;SDS011;60968;37.490;-122.288;2023-04-16T10:40:32;17.63;;;3.20;;
29466;SDS011;60968;37.490;-122.288;2023-04-16T10:43:42;12.67;;;3.00;;
29466;SDS011;60968;37.490;-122.288;2023-04-16T10:46:47;18.17;;;3.60;;
29466;SDS011;60968;37.490;-122.288;2023-04-16T10:49:49;13.47;;;2.40;;
29466;SDS011;60968;37.490;-122.288;2023-04-16T10:53:15;11.33;;;3.53;;
29466;SDS011;60968;37.490;-122.288;2023-04-16T10:56:23;11.60;;;2.00;;
29466;SDS011;60968;37.490;-122.288;2023-04-16T10:59:29;15.87;;;2.77;;
29466;SDS011;60968;37.490;-122.288;2023-04-16T11:02:30;12.27;;;2.57;;
29466;SDS011;60968;37.490;-122.288;2023-04-16T11:05:43;11.57;;;3.07;;
29466;SDS011;60968;37.490;-122.288;2023-04-16T11:08:45;16.27;;;2.47;;
29466;SDS011;60968;37.490;-122.288;2023-04-16T11:11:47;17.73;;;3.27;;
29466;SDS011;60968;37.490;-122.288;2023-04-16T11:15:07;10.97;;;2.13;;
29466;SDS011;60968;37.490;-122.288;2023-04-16T11:18:10;17.27;;;2.53;;
29466;SDS011;60968;37.490;-122.288;2023-04-16T11:21:11;18.93;;;3.17;;
29466;SDS011;60968;37.490;-122.288;2023-04-16T11:24:12;13.80;;;2.17;;
29466;SDS011;60968;37.490;-122.288;2023-04-16T11:27:13;16.63;;;2.57;;
29466;SDS011;60968;37.490;-122.288;2023-04-16T11:30:17;14.13;;;3.53;;
29466;SDS011;60968;37.490;-122.288;2023-04-16T11:33:35;13.03;;;3.37;;
29466;SDS011;60968;37.490;-122.288;2023-04-16T11:36:47;13.87;;;3.00;;
29466;SDS011;60968;37.490;-122.288;2023-04-16T11:39:50;16.23;;;2.77;;
29466;SDS011;60968;37.490;-122.288;2023-04-16T11:42:51;18.20;;;3.50;;
29466;SDS011;60968;37.490;-122.288;2023-04-16T11:46:02;14.67;;;2.97;;
29466;SDS011;60968;37.490;-122.288;2023-04-16T11:49:07;10.50;;;2.60;;
29466;SDS011;60968;37.490;-122.288;2023-04-16T11:52:08;18.80;;;2.73;;
29466;SDS011;60968;37.490;-122.288;2023-04-16T11:55:08;13.33;;;2.80;;
29466;SDS011;60968;37.490;-122.288;2023-04-16T11:58:10;16.63;;;2.80;;
29466;SDS011;60968;37.490;-122.288;2023-04-16T12:01:11;14.47;;;2.23;;
29466;SDS011;60968;37.490;-122.288;2023-04-16T12:04:20;21.87;;;3.20;;
29466;SDS011;60968;37.490;-122.288;2023-04-16T12:07:23;12.13;;;2.13;;
29466;SDS011;60968;37.490;-122.288;2023-04-16T12:10:25;9.53;;;2.80;;
29466;SDS011;60968;37.490;-122.288;2023-04-16T12:13:27;18.30;;;3.03;;
29466;SDS011;60968;37.490;-122.288;2023-04-16T12:16:28;21.87;;;4.30;;
29466;SDS011;60968;37.490;-122.288;2023-04-16T12:19:29;10.77;;;2.43;;
29466;SDS011;60968;37.490;-122.288;2023-04-16T12:22:31;13.33;;;2.33;;
29466;SDS011;60968;37.490;-122.288;2023-04-16T12:25:33;14.90;;;2.67;;
29466;SDS011;60968;37.490;-122.288;2023-04-16T12:28:35;14.03;;;2.90;;
29466;SDS011;60968;37.490;-122.288;2023-04-16T12:31:36;13.97;;;2.67;;
29466;SDS011;60968;37.490;-122.288;2023-04-16T12:34:48;12.63;;;2.60;;
29466;SDS011;60968;37.490;-122.288;2023-04-16T12:37:50;8.43;;;2.40;;
29466;SDS011;60968;37.490;-122.288;2023-04-16T12:40:51;18.37;;;2.67;;
29466;SDS011;60968;37.490;-122.288;2023-04-16T12:43:51;15.57;;;2.70;;
29466;SDS011;60968;37.490;-122.288;2023-04-16T12:47:03;11.30;;;2.63;;
29466;SDS011;60968;37.490;-122.288;2023-04-16T12:50:04;9.80;;;2.37;;
29466;SDS011;60968;37.490;-122.288;2023-04-16T12:53:05;9.80;;;2.73;;
29466;SDS011;60968;37.490;-122.288;2023-04-16T12:59:18;15.73;;;2.53;;
29466;SDS011;60968;37.490;-122.288;2023-04-16T13:02:19;9.40;;;2.50;;
29466;SDS011;60968;37.490;-122.288;2023-04-16T13:05:23;14.07;;;2.43;;
29466;SDS011;60968;37.490;-122.288;2023-04-16T13:08:25;7.33;;;2.17;;
29466;SDS011;60968;37.490;-122.288;2023-04-16T13:11:26;11.17;;;2.23;;
29466;SDS011;60968;37.490;-122.288;2023-04-16T13:14:28;12.93;;;2.47;;
29466;SDS011;60968;37.490;-122.288;2023-04-16T13:17:29;11.70;;;2.83;;
29466;SDS011;60968;37.490;-122.288;2023-04-16T13:20:31;13.33;;;3.07;;
29466;SDS011;60968;37.490;-122.288;2023-04-16T13:23:35;7.83;;;2.20;;
29466;SDS011;60968;37.490;-122.288;2023-04-16T13:26:37;10.67;;;2.33;;
29466;SDS011;60968;37.490;-122.288;2023-04-16T13:29:37;9.63;;;2.30;;
29466;SDS011;60968;37.490;-122.288;2023-04-16T13:32:38;7.23;;;2.10;;
29466;SDS011;60968;37.490;-122.288;2023-04-16T13:35:40;9.40;;;2.33;;
29466;SDS011;60968;37.490;-122.288;2023-04-16T13:38:41;6.67;;;2.13;;
29466;SDS011;60968;37.490;-122.288;2023-04-16T13:41:42;11.63;;;2.90;;
29466;SDS011;60968;37.490;-122.288;2023-04-16T13:44:43;7.07;;;2.30;;
29466;SDS011;60968;37.490;-122.288;2023-04-16T13:47:44;12.17;;;2.23;;
29466;SDS011;60968;37.490;-122.288;2023-04-16T13:50:44;10.33;;;2.17;;
29466;SDS011;60968;37.490;-122.288;2023-04-16T13:53:48;10.73;;;2.10;;
29466;SDS011;60968;37.490;-122.288;2023-04-16T13:56:49;16.77;;;2.87;;
29466;SDS011;60968;37.490;-122.288;2023-04-16T13:59:50;8.67;;;2.20;;
29466;SDS011;60968;37.490;-122.288;2023-04-16T14:02:51;8.53;;;2.13;;
29466;SDS011;60968;37.490;-122.288;2023-04-16T14:05:55;12.30;;;2.93;;
29466;SDS011;60968;37.490;-122.288;2023-04-16T14:08:56;14.27;;;2.53;;
29466;SDS011;60968;37.490;-122.288;2023-04-16T14:11:57;12.40;;;2.47;;
29466;SDS011;60968;37.490;-122.288;2023-04-16T14:14:58;11.97;;;2.57;;
29466;SDS011;60968;37.490;-122.288;2023-04-16T14:18:00;12.07;;;2.10;;
29466;SDS011;60968;37.490;-122.288;2023-04-16T14:21:01;10.27;;;2.67;;
29466;SDS011;60968;37.490;-122.288;2023-04-16T14:24:03;11.10;;;2.80;;
29466;SDS011;60968;37.490;-122.288;2023-04-16T14:27:04;10.17;;;3.03;;
29466;SDS011;60968;37.490;-122.288;2023-04-16T14:30:05;9.47;;;2.33;;
29466;SDS011;60968;37.490;-122.288;2023-04-16T14:33:06;9.87;;;2.70;;
29466;SDS011;60968;37.490;-122.288;2023-04-16T14:36:08;16.97;;;2.70;;
29466;SDS011;60968;37.490;-122.288;2023-04-16T14:39:09;7.73;;;2.10;;
29466;SDS011;60968;37.490;-122.288;2023-04-16T14:42:12;11.73;;;2.30;;
29466;SDS011;60968;37.490;-122.288;2023-04-16T14:45:13;7.87;;;2.33;;
29466;SDS011;60968;37.490;-122.288;2023-04-16T14:48:14;7.70;;;2.57;;
29466;SDS011;60968;37.490;-122.288;2023-04-16T14:51:15;11.53;;;2.30;;
29466;SDS011;60968;37.490;-122.288;2023-04-16T14:54:15;11.60;;;2.43;;
29466;SDS011;60968;37.490;-122.288;2023-04-16T14:57:20;8.37;;;2.30;;
29466;SDS011;60968;37.490;-122.288;2023-04-16T15:00:21;6.13;;;1.80;;
29466;SDS011;60968;37.490;-122.288;2023-04-16T15:03:27;6.30;;;1.80;;
29466;SDS011;60968;37.490;-122.288;2023-04-16T15:06:29;8.97;;;2.10;;
29466;SDS011;60968;37.490;-122.288;2023-04-16T15:09:30;11.53;;;1.83;;
29466;SDS011;60968;37.490;-122.288;2023-04-16T15:12:32;6.33;;;1.80;;
29466;SDS011;60968;37.490;-122.288;2023-04-16T15:15:33;8.37;;;2.10;;
29466;SDS011;60968;37.490;-122.288;2023-04-16T15:18:34;12.10;;;2.03;;
29466;SDS011;60968;37.490;-122.288;2023-04-16T15:21:35;7.50;;;1.77;;
29466;SDS011;60968;37.490;-122.288;2023-04-16T15:24:36;9.40;;;1.90;;
29466;SDS011;60968;37.490;-122.288;2023-04-16T15:27:37;8.43;;;2.23;;
29466;SDS011;60968;37.490;-122.288;2023-04-16T15:30:38;9.93;;;1.87;;
29466;SDS011;60968;37.490;-122.288;2023-04-16T15:33:40;8.00;;;2.13;;
29466;SDS011;60968;37.490;-122.288;2023-04-16T15:36:40;7.77;;;1.60;;
29466;SDS011;60968;37.490;-122.288;2023-04-16T15:39:41;12.37;;;2.23;;
29466;SDS011;60968;37.490;-122.288;2023-04-16T15:42:42;11.33;;;2.13;;
29466;SDS011;60968;37.490;-122.288;2023-04-16T15:45:43;12.83;;;1.87;;
29466;SDS011;60968;37.490;-122.288;2023-04-16T15:48:45;4.07;;;1.60;;
29466;SDS011;60968;37.490;-122.288;2023-04-16T15:51:46;4.90;;;1.60;;
29466;SDS011;60968;37.490;-122.288;2023-04-16T15:54:48;10.40;;;1.90;;
29466;SDS011;60968;37.490;-122.288;2023-04-16T15:57:50;7.67;;;1.77;;
29466;SDS011;60968;37.490;-122.288;2023-04-16T16:00:51;7.10;;;1.90;;
29466;SDS011;60968;37.490;-122.288;2023-04-16T16:03:52;7.03;;;1.92;;
29466;SDS011;60968;37.490;-122.288;2023-04-16T16:06:53;6.82;;;2.28;;
29466;SDS011;60968;37.490;-122.288;2023-04-16T16:09:54;7.17;;;2.23;;
29466;SDS011;60968;37.490;-122.288;2023-04-16T16:12:55;6.43;;;1.80;;
29466;SDS011;60968;37.490;-122.288;2023-04-16T16:15:56;14.23;;;2.07;;
29466;SDS011;60968;37.490;-122.288;2023-04-16T16:18:56;7.97;;;2.00;;
29466;SDS011;60968;37.490;-122.288;2023-04-16T16:21:57;4.37;;;1.63;;
29466;SDS011;60968;37.490;-122.288;2023-04-16T16:24:58;7.23;;;1.60;;
29466;SDS011;60968;37.490;-122.288;2023-04-16T16:28:00;5.90;;;1.63;;
29466;SDS011;60968;37.490;-122.288;2023-04-16T16:31:01;6.93;;;1.80;;
29466;SDS011;60968;37.490;-122.288;2023-04-16T16:34:03;5.90;;;1.50;;
29466;SDS011;60968;37.490;-122.288;2023-04-16T16:37:05;8.33;;;1.67;;
29466;SDS011;60968;37.490;-122.288;2023-04-16T16:40:08;8.77;;;1.60;;
29466;SDS011;60968;37.490;-122.288;2023-04-16T16:43:09;5.27;;;1.60;;
29466;SDS011;60968;37.490;-122.288;2023-04-16T16:46:12;7.20;;;1.50;;
29466;SDS011;60968;37.490;-122.288;2023-04-16T16:49:14;6.97;;;1.40;;
29466;SDS011;60968;37.490;-122.288;2023-04-16T16:52:15;7.20;;;1.53;;
29466;SDS011;60968;37.490;-122.288;2023-04-16T16:55:16;5.63;;;1.70;;
29466;SDS011;60968;37.490;-122.288;2023-04-16T16:58:17;4.53;;;1.40;;
29466;SDS011;60968;37.490;-122.288;2023-04-16T17:01:18;3.67;;;1.10;;
29466;SDS011;60968;37.490;-122.288;2023-04-16T17:04:23;8.23;;;1.37;;
29466;SDS011;60968;37.490;-122.288;2023-04-16T17:07:27;5.53;;;1.20;;
29466;SDS011;60968;37.490;-122.288;2023-04-16T17:10:30;4.83;;;1.40;;
29466;SDS011;60968;37.490;-122.288;2023-04-16T17:13:31;4.80;;;1.50;;
29466;SDS011;60968;37.490;-122.288;2023-04-16T17:16:32;8.53;;;1.50;;
29466;SDS011;60968;37.490;-122.288;2023-04-16T17:19:33;6.40;;;1.63;;
29466;SDS011;60968;37.490;-122.288;2023-04-16T17:22:34;5.37;;;1.63;;